aviador You're here:

KVSF Decoded Metar

SPRINGFIELD in VT, USA
Report Time2017-07-21 06:45:00
UTC Time2017-07-21 06:51:39
Flight Rules vfr VFR
Wind070° at 03 kt
W.Decomp.*RWY 11: 2.7 kt HW 1.3 kt LCW
RWY 05: 2.5 kt HW 1.7 kt RCW
W.Rank070° ranks 26
Current wind is below 070° avg. (4.6)
Visibility9656 m
Phenomena:Mist
Clouds:Scattered 004 Hf
Expected CloudBase > 400 ft AGL from Temp-Dew spread
CeilingNone
Temp16°C (ISA +2)
Dew Point15°C (94% RH)
QNH1011 hPa
Density Alt1,125 ft
Elevation574 ft
Report Wrong Elevation
Raw Report
KVSF 210645Z AUTO 07003KT 6SM BR SCT004 16/15 A2986 RMK AO2
T01610150=

Extra information for KVSF:More info

Metar Taf Metar & Taf Last 4 Metars F.Rules Stats Wind Profile Meteogram Temp Stats Airport Information Weather charts Add Link Nearby VenuesMetar ALERT Operation Metar Decoded Social comments

AIRNAV info for KVSF